Time;durP1;ratioP1;P1;durP2;ratioP2;P2;SDS_P1;SDS_P2;PMS_P1;PMS_P2;Temp;Humidity;BMP_temperature;BMP_pressure;BME280_temperature;BME280_humidity;BME280_pressure;Samples;Min_cycle;Max_cycle;Signal;HPM_P1;HPM_P2
2023/01/28 00:01:07;;;;;;;10.57;9.45;;;1.30;99.90;;;;;;5046630;28;20060;-39
2023/01/28 00:03:34;;;;;;;8.13;7.32;;;1.30;99.90;;;;;;5045949;28;20041;-39
2023/01/28 00:06:06;;;;;;;8.82;7.18;;;1.30;99.90;;;;;;5045238;28;20569;-39
2023/01/28 00:08:32;;;;;;;8.98;7.72;;;1.20;99.90;;;;;;5045851;28;20041;-39
2023/01/28 00:11:03;;;;;;;8.38;7.40;;;1.20;99.90;;;;;;5045707;28;20091;-39
2023/01/28 00:13:29;;;;;;;8.80;7.90;;;1.30;99.90;;;;;;5045852;28;20043;-39
2023/01/28 00:16:00;;;;;;;9.93;8.93;;;1.30;99.90;;;;;;5046478;28;20049;-39
2023/01/28 00:18:27;;;;;;;10.63;9.18;;;1.30;99.90;;;;;;5045633;28;20048;-39
2023/01/28 00:21:01;;;;;;;10.60;9.50;;;1.20;99.90;;;;;;5045491;28;20049;-39
2023/01/28 00:23:28;;;;;;;11.50;10.20;;;1.20;99.90;;;;;;5045408;28;20040;-39
2023/01/28 00:25:56;;;;;;;12.25;10.90;;;1.20;99.90;;;;;;5027617;28;20041;-39
2023/01/28 00:28:22;;;;;;;12.23;10.55;;;1.20;99.90;;;;;;5045570;28;20045;-39
2023/01/28 00:30:47;;;;;;;12.23;10.93;;;1.10;99.90;;;;;;5045577;28;20048;-39
2023/01/28 00:33:13;;;;;;;13.00;10.82;;;1.20;99.90;;;;;;5027194;28;20037;-39
2023/01/28 00:35:39;;;;;;;12.48;11.18;;;1.20;99.90;;;;;;5026626;28;20076;-39
2023/01/28 00:38:05;;;;;;;13.10;10.63;;;1.20;99.90;;;;;;5045650;28;20040;-39
2023/01/28 00:40:30;;;;;;;11.38;9.90;;;1.10;99.90;;;;;;5044823;28;20521;-39
2023/01/28 00:42:56;;;;;;;13.23;11.23;;;1.30;99.90;;;;;;5045560;28;20049;-39
2023/01/28 00:45:22;;;;;;;13.73;10.68;;;1.20;99.90;;;;;;5045482;28;20148;-39
2023/01/28 00:47:48;;;;;;;11.85;9.65;;;1.20;99.90;;;;;;5044845;28;20170;-39
2023/01/28 00:50:14;;;;;;;14.60;9.98;;;1.20;99.90;;;;;;5046703;28;20522;-39
2023/01/28 00:52:40;;;;;;;13.65;10.10;;;1.20;99.90;;;;;;5048595;28;20036;-39
2023/01/28 00:55:06;;;;;;;10.73;8.90;;;1.20;99.90;;;;;;5048701;28;20049;-39
2023/01/28 00:57:32;;;;;;;12.63;9.27;;;1.20;99.90;;;;;;5046944;28;20045;-39
2023/01/28 00:59:58;;;;;;;11.85;8.63;;;1.20;99.90;;;;;;5048694;28;20486;-39
2023/01/28 01:02:24;;;;;;;10.90;9.38;;;1.20;99.90;;;;;;5049073;28;20082;-39
2023/01/28 01:04:59;;;;;;;11.63;8.88;;;1.20;99.90;;;;;;5047899;28;20045;-39
2023/01/28 01:07:40;;;;;;;11.65;9.32;;;1.20;99.90;;;;;;5048431;28;20044;-39
2023/01/28 01:10:10;;;;;;;10.80;8.57;;;1.40;99.90;;;;;;5048591;28;20033;-39
2023/01/28 01:12:37;;;;;;;10.75;8.60;;;0.90;99.90;;;;;;5048031;28;20106;-39
2023/01/28 01:15:03;;;;;;;10.27;8.85;;;1.20;99.90;;;;;;5047917;28;20056;-39
2023/01/28 01:17:30;;;;;;;12.77;8.68;;;1.10;99.90;;;;;;5047995;28;20095;-39
2023/01/28 01:19:56;;;;;;;11.68;8.70;;;1.20;99.90;;;;;;5047837;28;20059;-39
2023/01/28 01:22:22;;;;;;;10.80;8.40;;;1.20;99.90;;;;;;5048007;28;20556;-39
2023/01/28 01:24:47;;;;;;;10.90;8.27;;;1.10;99.90;;;;;;5047859;28;20047;-39
2023/01/28 01:27:13;;;;;;;13.15;8.98;;;1.30;99.90;;;;;;5048262;28;20075;-39
2023/01/28 01:29:39;;;;;;;10.20;8.80;;;1.20;99.90;;;;;;5047720;28;20398;-38
2023/01/28 01:32:04;;;;;;;10.38;8.50;;;1.20;99.90;;;;;;5047883;28;20049;-39
2023/01/28 01:34:30;;;;;;;10.13;8.35;;;1.20;99.90;;;;;;5047944;28;20052;-39
2023/01/28 01:36:57;;;;;;;13.15;10.00;;;1.40;99.90;;;;;;5047352;28;20057;-39
2023/01/28 01:39:23;;;;;;;13.35;9.63;;;1.20;99.90;;;;;;5045333;28;20486;-39
2023/01/28 01:41:48;;;;;;;13.35;9.77;;;1.20;99.90;;;;;;5046766;28;20791;-39
2023/01/28 01:44:52;;;;;;;12.43;9.77;;;1.20;99.90;;;;;;5046906;28;20427;-39
2023/01/28 01:47:21;;;;;;;12.70;10.43;;;1.10;99.90;;;;;;5046664;28;20072;-39
2023/01/28 01:49:47;;;;;;;12.10;9.90;;;1.20;99.90;;;;;;5047218;28;20099;-39
2023/01/28 01:52:17;;;;;;;14.40;11.15;;;1.20;99.90;;;;;;5047306;28;20045;-39
2023/01/28 01:54:47;;;;;;;15.57;9.88;;;1.20;99.90;;;;;;5029333;28;20080;-39
2023/01/28 01:57:19;;;;;;;12.93;10.38;;;1.20;99.90;;;;;;5048261;28;20067;-39
2023/01/28 01:59:46;;;;;;;13.45;10.82;;;1.20;99.90;;;;;;5047544;28;20045;-39
2023/01/28 02:02:12;;;;;;;14.43;10.15;;;1.20;99.90;;;;;;5046459;28;20564;-39
2023/01/28 02:04:40;;;;;;;13.27;10.52;;;1.20;99.90;;;;;;5047376;28;20115;-38
2023/01/28 02:07:08;;;;;;;12.88;10.00;;;1.20;99.90;;;;;;5047878;28;20060;-39
2023/01/28 02:09:37;;;;;;;13.98;10.90;;;1.10;99.90;;;;;;5047389;28;20123;-39
2023/01/28 02:12:08;;;;;;;13.30;10.57;;;1.20;99.90;;;;;;5048299;28;20099;-39
2023/01/28 02:14:41;;;;;;;14.40;11.20;;;1.20;99.90;;;;;;5047798;28;20423;-39
2023/01/28 02:17:07;;;;;;;12.10;9.52;;;1.10;99.90;;;;;;5047489;28;20053;-39
2023/01/28 02:19:57;;;;;;;13.07;10.85;;;1.20;99.90;;;;;;5047748;28;20044;-38
2023/01/28 02:22:42;;;;;;;13.95;10.18;;;1.00;99.90;;;;;;5047628;28;20386;-39
2023/01/28 02:25:26;;;;;;;15.48;11.30;;;1.00;99.90;;;;;;5047196;28;20036;-39
2023/01/28 02:28:00;;;;;;;13.85;10.90;;;1.00;99.90;;;;;;5047269;28;20037;-39
2023/01/28 02:30:38;;;;;;;14.55;11.20;;;1.00;99.90;;;;;;5047289;28;20122;-39
2023/01/28 02:33:55;;;;;;;14.60;10.05;;;1.00;99.90;;;;;;5046985;28;20151;-39
2023/01/28 02:36:41;;;;;;;13.95;10.77;;;1.00;99.90;;;;;;5003967;28;20561;-39
2023/01/28 02:39:12;;;;;;;14.18;10.75;;;1.10;99.90;;;;;;5028809;28;20284;-39
2023/01/28 02:41:49;;;;;;;15.18;10.77;;;1.10;99.90;;;;;;5046782;28;20045;-39
2023/01/28 02:44:14;;;;;;;16.40;10.45;;;1.10;99.90;;;;;;5046945;28;20048;-39
2023/01/28 02:49:47;;;;;;;15.57;11.10;;;1.10;99.90;;;;;;5046598;28;20114;-39
2023/01/28 02:55:19;;;;;;;15.70;10.82;;;1.00;99.90;;;;;;5046640;28;20125;-39
2023/01/28 02:58:05;;;;;;;15.77;11.02;;;1.20;99.90;;;;;;5046262;28;20048;-38
2023/01/28 03:00:39;;;;;;;15.63;10.52;;;1.20;99.90;;;;;;5046490;28;20498;-38
2023/01/28 03:03:33;;;;;;;12.55;9.43;;;1.00;99.90;;;;;;5046702;28;20441;-39
2023/01/28 03:06:05;;;;;;;12.80;9.52;;;1.00;99.90;;;;;;5027866;28;20056;-39
2023/01/28 03:37:02;;;;;;;13.73;9.15;;;1.00;99.90;;;;;;5045878;28;20118;-38
2023/01/28 03:39:29;;;;;;;14.50;10.05;;;1.10;99.90;;;;;;5046074;28;20566;-39
2023/01/28 03:42:14;;;;;;;13.60;10.18;;;1.00;99.90;;;;;;5045893;28;20045;-39
2023/01/28 03:44:52;;;;;;;13.50;9.57;;;1.00;99.90;;;;;;5046525;28;20094;-39
2023/01/28 03:47:26;;;;;;;13.35;9.52;;;1.00;99.90;;;;;;5046007;28;20653;-39
2023/01/28 03:49:53;;;;;;;14.43;9.90;;;0.90;99.90;;;;;;5046148;28;20492;-38
2023/01/28 03:52:22;;;;;;;12.50;8.77;;;1.00;99.90;;;;;;5045934;28;20390;-38
2023/01/28 03:54:48;;;;;;;13.18;9.32;;;0.90;99.90;;;;;;5045885;28;20123;-38
2023/01/28 03:57:19;;;;;;;12.50;8.80;;;0.80;99.90;;;;;;5045745;28;20049;-39
2023/01/28 03:59:45;;;;;;;14.07;10.20;;;1.00;99.90;;;;;;5046383;28;20033;-38
2023/01/28 04:02:11;;;;;;;15.07;10.77;;;0.90;99.90;;;;;;5045424;28;20583;-39
2023/01/28 04:04:38;;;;;;;13.05;10.05;;;0.80;99.90;;;;;;5045978;28;20045;-39
2023/01/28 04:07:07;;;;;;;13.80;10.40;;;0.90;99.90;;;;;;5045915;28;20040;-39
2023/01/28 04:09:34;;;;;;;14.90;10.85;;;0.90;99.90;;;;;;5045730;28;20049;-39
2023/01/28 04:12:00;;;;;;;15.50;10.48;;;0.80;99.90;;;;;;5045867;28;20053;-39
2023/01/28 04:14:26;;;;;;;14.70;10.10;;;0.90;99.90;;;;;;5046126;28;20478;-39
2023/01/28 04:16:53;;;;;;;13.05;9.13;;;0.90;99.90;;;;;;5045603;28;20148;-38
2023/01/28 04:19:20;;;;;;;12.38;9.13;;;0.80;99.90;;;;;;5027862;28;20033;-38
2023/01/28 04:21:46;;;;;;;11.32;8.27;;;0.80;99.90;;;;;;5045920;28;20044;-39
2023/01/28 04:24:12;;;;;;;11.40;8.43;;;0.80;99.90;;;;;;5045377;28;20041;-39
2023/01/28 04:26:38;;;;;;;13.60;9.65;;;0.80;99.90;;;;;;5049215;28;20045;-39
2023/01/28 04:29:03;;;;;;;12.98;10.07;;;0.80;99.90;;;;;;5049539;28;20049;-39
2023/01/28 04:31:29;;;;;;;16.95;10.90;;;0.80;99.90;;;;;;5049024;28;20064;-39
2023/01/28 04:33:55;;;;;;;15.10;10.40;;;0.70;99.90;;;;;;5048408;28;20116;-39
2023/01/28 04:36:21;;;;;;;16.67;11.07;;;0.80;99.90;;;;;;5048062;28;20132;-39
2023/01/28 04:38:47;;;;;;;18.27;11.63;;;0.80;99.90;;;;;;5048405;28;20511;-39
2023/01/28 04:41:12;;;;;;;16.42;11.13;;;0.80;99.90;;;;;;5047760;28;20483;-39
2023/01/28 04:43:38;;;;;;;14.45;9.80;;;0.80;99.90;;;;;;5048934;28;20037;-39
2023/01/28 04:46:04;;;;;;;16.98;10.77;;;0.80;99.90;;;;;;5048854;28;20041;-38
2023/01/28 04:48:30;;;;;;;14.60;9.68;;;0.80;99.90;;;;;;5048685;28;20110;-39
2023/01/28 04:50:56;;;;;;;14.77;10.52;;;0.80;99.90;;;;;;5048920;28;20137;-39
2023/01/28 04:53:22;;;;;;;15.20;10.30;;;0.70;99.90;;;;;;5048508;28;20049;-38
2023/01/28 04:55:48;;;;;;;14.20;10.25;;;0.70;99.90;;;;;;5048573;28;20566;-39
2023/01/28 04:58:13;;;;;;;17.98;10.80;;;0.70;99.90;;;;;;5048966;28;20084;-38
2023/01/28 05:00:39;;;;;;;14.25;10.43;;;0.70;99.90;;;;;;5048889;28;20609;-38
2023/01/28 05:03:04;;;;;;;14.30;9.82;;;0.70;99.90;;;;;;5049001;28;20033;-39
2023/01/28 05:05:31;;;;;;;14.45;10.73;;;0.70;99.90;;;;;;5049014;28;20045;-39
2023/01/28 05:07:58;;;;;;;14.73;9.98;;;0.70;99.90;;;;;;5049310;28;20040;-39
2023/01/28 05:10:25;;;;;;;15.25;9.93;;;0.70;99.90;;;;;;5049292;28;20048;-39
2023/01/28 05:12:51;;;;;;;12.57;8.80;;;0.70;99.90;;;;;;5049274;28;20056;-39
2023/01/28 05:15:18;;;;;;;13.48;9.60;;;0.90;99.90;;;;;;5049190;28;20041;-39
2023/01/28 05:17:44;;;;;;;13.43;9.20;;;0.70;99.90;;;;;;5049282;28;20159;-39
2023/01/28 05:20:12;;;;;;;13.15;8.75;;;0.70;99.90;;;;;;5049221;28;20059;-38
2023/01/28 05:22:38;;;;;;;12.65;9.05;;;0.70;99.90;;;;;;5049309;28;20067;-39
2023/01/28 05:25:05;;;;;;;14.13;9.73;;;0.70;99.90;;;;;;5049249;28;20033;-39
2023/01/28 05:27:31;;;;;;;13.32;9.18;;;0.70;99.90;;;;;;5048352;28;20037;-39
2023/01/28 05:29:58;;;;;;;11.90;8.35;;;0.70;99.90;;;;;;5048418;28;20490;-39
2023/01/28 05:32:24;;;;;;;12.13;8.30;;;0.70;99.90;;;;;;5048411;28;20048;-39
2023/01/28 05:34:50;;;;;;;11.60;8.38;;;0.70;99.90;;;;;;5048267;28;20048;-39
2023/01/28 05:37:15;;;;;;;12.90;9.73;;;0.70;99.90;;;;;;5028686;28;20052;-38
2023/01/28 05:39:41;;;;;;;14.18;9.07;;;0.60;99.90;;;;;;5048387;28;20040;-39
2023/01/28 05:42:07;;;;;;;13.13;9.38;;;0.60;99.90;;;;;;5048367;28;20041;-39
2023/01/28 05:44:33;;;;;;;13.48;8.98;;;0.60;99.90;;;;;;5047867;28;20048;-39
2023/01/28 05:46:58;;;;;;;12.13;8.27;;;0.60;99.90;;;;;;5047852;28;20041;-38
2023/01/28 05:49:25;;;;;;;11.25;8.30;;;0.60;99.90;;;;;;5047648;28;20038;-38
2023/01/28 05:51:51;;;;;;;10.50;8.15;;;0.40;99.90;;;;;;5048131;28;20132;-38
2023/01/28 05:54:17;;;;;;;13.85;9.32;;;0.60;99.90;;;;;;5029554;28;20059;-39
2023/01/28 05:56:42;;;;;;;11.77;8.40;;;0.70;99.90;;;;;;5047549;28;20045;-39
2023/01/28 05:59:10;;;;;;;11.55;7.68;;;0.60;99.90;;;;;;5047375;28;20041;-38
2023/01/28 06:01:36;;;;;;;13.45;8.32;;;0.80;99.90;;;;;;5029384;28;20053;-38
2023/01/28 06:04:02;;;;;;;11.75;8.40;;;0.60;99.90;;;;;;5047937;28;20040;-39
2023/01/28 06:06:28;;;;;;;12.32;8.88;;;0.50;99.90;;;;;;5047550;28;20045;-38
2023/01/28 06:08:54;;;;;;;13.40;9.27;;;0.60;99.90;;;;;;5047110;28;20502;-39
2023/01/28 06:11:20;;;;;;;12.57;8.88;;;0.60;99.90;;;;;;5047471;28;20049;-39
2023/01/28 06:13:45;;;;;;;13.13;8.32;;;0.60;99.90;;;;;;5047141;28;20825;-39
2023/01/28 06:16:11;;;;;;;12.15;8.45;;;0.50;99.90;;;;;;5047511;28;20045;-38
2023/01/28 06:18:37;;;;;;;11.75;8.40;;;0.50;99.90;;;;;;5047008;28;20049;-39
2023/01/28 06:21:03;;;;;;;13.00;8.18;;;0.50;99.90;;;;;;5046962;28;20044;-38
2023/01/28 06:23:29;;;;;;;14.50;9.70;;;0.50;99.90;;;;;;5047589;28;20183;-39
2023/01/28 06:25:55;;;;;;;10.80;7.78;;;0.50;99.90;;;;;;5047428;28;20048;-39
2023/01/28 06:28:22;;;;;;;11.77;8.27;;;0.40;99.90;;;;;;5046637;28;20040;-39
2023/01/28 06:30:48;;;;;;;12.15;8.13;;;0.50;99.90;;;;;;5047559;28;20120;-38
2023/01/28 06:33:14;;;;;;;10.77;7.32;;;0.40;99.90;;;;;;5047354;28;20680;-38
2023/01/28 06:35:40;;;;;;;10.90;7.63;;;0.50;99.90;;;;;;5046589;28;20064;-39
2023/01/28 06:38:06;;;;;;;12.00;8.40;;;0.40;99.90;;;;;;5047212;28;20056;-38
2023/01/28 06:40:31;;;;;;;10.55;8.13;;;0.50;99.90;;;;;;5029229;28;20501;-38
2023/01/28 06:42:57;;;;;;;12.93;8.50;;;0.60;99.90;;;;;;5047630;28;20037;-39
2023/01/28 06:45:22;;;;;;;11.88;7.88;;;0.50;99.90;;;;;;5047673;28;20067;-39
2023/01/28 06:47:48;;;;;;;11.25;8.50;;;0.50;99.90;;;;;;5046400;28;20221;-39
2023/01/28 06:50:14;;;;;;;12.90;8.15;;;0.50;99.90;;;;;;5046927;28;20572;-39
2023/01/28 06:52:40;;;;;;;11.88;8.73;;;0.90;99.90;;;;;;5046809;28;20823;-38
2023/01/28 06:55:06;;;;;;;11.40;8.27;;;0.60;99.90;;;;;;5046816;28;20845;-38
2023/01/28 06:57:32;;;;;;;12.57;8.60;;;0.80;99.90;;;;;;5046690;28;20048;-38
2023/01/28 06:59:58;;;;;;;13.25;9.07;;;0.50;99.90;;;;;;5046763;28;20036;-39
2023/01/28 07:02:23;;;;;;;15.55;10.40;;;0.50;99.90;;;;;;5046272;28;20818;-39
2023/01/28 07:04:49;;;;;;;12.10;8.63;;;0.50;99.90;;;;;;5046400;28;20041;-38
2023/01/28 07:07:15;;;;;;;12.70;9.75;;;0.50;99.90;;;;;;5046553;28;20149;-39
2023/01/28 07:09:40;;;;;;;14.80;9.77;;;0.50;99.90;;;;;;5028629;28;20045;-39
2023/01/28 07:12:06;;;;;;;14.95;10.88;;;0.50;99.90;;;;;;5046509;28;20033;-39
2023/01/28 07:14:32;;;;;;;16.10;11.23;;;0.60;99.90;;;;;;5045806;28;20123;-39
2023/01/28 07:16:57;;;;;;;14.98;10.15;;;0.50;99.90;;;;;;5046111;28;20036;-39
2023/01/28 07:19:23;;;;;;;14.90;11.00;;;0.50;99.90;;;;;;5045958;28;20053;-38
2023/01/28 07:21:49;;;;;;;15.07;10.82;;;0.50;99.90;;;;;;5046015;28;20154;-39
2023/01/28 07:24:14;;;;;;;14.80;10.98;;;0.40;99.90;;;;;;5045534;28;20091;-38
2023/01/28 07:26:40;;;;;;;17.17;11.30;;;0.50;99.90;;;;;;5045336;28;20560;-39
2023/01/28 07:29:08;;;;;;;14.35;10.57;;;0.50;99.90;;;;;;5045446;28;20453;-39
2023/01/28 07:31:33;;;;;;;15.90;10.82;;;0.60;99.90;;;;;;5045201;28;20098;-39
2023/01/28 07:33:59;;;;;;;16.25;11.38;;;0.50;99.90;;;;;;5045215;28;20053;-38
2023/01/28 07:36:25;;;;;;;15.38;11.65;;;0.50;99.90;;;;;;5027371;28;20064;-39
2023/01/28 07:38:50;;;;;;;13.38;10.25;;;0.30;99.90;;;;;;5045945;28;20067;-39
2023/01/28 07:41:16;;;;;;;14.73;10.52;;;0.50;99.90;;;;;;5046427;28;20051;-38
2023/01/28 07:43:42;;;;;;;13.02;9.38;;;;;;;;;;5045889;28;20056;-39
2023/01/28 07:46:08;;;;;;;14.65;9.90;;;0.10;99.90;;;;;;5046136;28;20506;-39
2023/01/28 07:48:34;;;;;;;13.73;10.07;;;0.00;99.90;;;;;;5046089;28;20041;-39
2023/01/28 07:51:00;;;;;;;13.85;10.13;;;-0.20;99.90;;;;;;5046239;28;20044;-38
2023/01/28 07:53:26;;;;;;;13.20;9.40;;;-0.30;99.90;;;;;;5046163;28;20041;-38
2023/01/28 07:55:58;;;;;;;12.50;9.10;;;-0.40;99.90;;;;;;5045597;28;20689;-39
2023/01/28 07:58:24;;;;;;;14.30;10.55;;;-0.60;99.90;;;;;;5045988;28;20040;-38
2023/01/28 08:00:49;;;;;;;13.70;10.15;;;-0.70;99.90;;;;;;5048774;28;20079;-38
2023/01/28 08:03:15;;;;;;;16.25;10.13;;;-0.70;99.90;;;;;;5050279;28;20061;-38
2023/01/28 08:05:47;;;;;;;15.52;10.25;;;-0.80;99.90;;;;;;5032433;28;20075;-38
2023/01/28 08:08:12;;;;;;;13.38;9.32;;;-0.90;99.90;;;;;;5050170;28;20395;-39
2023/01/28 08:10:39;;;;;;;15.02;10.10;;;-1.00;99.90;;;;;;5049855;28;20098;-38
2023/01/28 08:13:05;;;;;;;15.30;10.82;;;-0.90;99.90;;;;;;5049772;28;20140;-39
2023/01/28 08:15:32;;;;;;;15.02;9.98;;;-0.90;99.90;;;;;;5049974;28;20048;-38
2023/01/28 08:17:59;;;;;;;15.63;10.02;;;-0.90;99.90;;;;;;5031679;28;20132;-38
2023/01/28 08:20:26;;;;;;;17.20;11.23;;;-0.80;99.90;;;;;;5049435;28;20495;-38
2023/01/28 08:22:52;;;;;;;16.55;11.48;;;-0.80;99.90;;;;;;5049145;28;20085;-38
2023/01/28 08:25:18;;;;;;;16.30;11.48;;;-0.80;99.90;;;;;;5049407;28;20069;-38
2023/01/28 08:27:44;;;;;;;17.05;10.82;;;-0.80;99.90;;;;;;5049119;28;20056;-38
2023/01/28 08:30:10;;;;;;;16.17;11.40;;;-0.70;99.90;;;;;;5049974;28;20045;-38
2023/01/28 08:32:36;;;;;;;17.50;11.65;;;-0.70;99.90;;;;;;5049731;28;20049;-38
2023/01/28 08:35:03;;;;;;;18.55;11.73;;;-0.70;99.90;;;;;;5049820;28;20103;-38
2023/01/28 08:37:28;;;;;;;15.38;11.48;;;-0.60;99.90;;;;;;5049525;28;20061;-38
2023/01/28 08:39:54;;;;;;;18.55;12.50;;;-0.60;99.90;;;;;;5031569;28;20055;-39
2023/01/28 08:42:20;;;;;;;18.25;12.18;;;-0.60;99.90;;;;;;5008831;28;20064;-38
2023/01/28 08:44:46;;;;;;;18.67;12.82;;;-0.60;99.90;;;;;;5059641;28;20483;-38
2023/01/28 08:47:13;;;;;;;19.77;12.75;;;-0.50;99.90;;;;;;5065369;28;20125;-39
2023/01/28 08:49:39;;;;;;;17.25;12.20;;;-0.30;99.90;;;;;;5066925;28;20048;-38
2023/01/28 08:52:04;;;;;;;19.50;12.70;;;-0.20;99.90;;;;;;5067638;28;20036;-39
2023/01/28 08:54:31;;;;;;;18.95;12.38;;;-0.10;99.90;;;;;;5067849;28;20033;-39
2023/01/28 08:56:57;;;;;;;18.23;12.18;;;0.00;99.90;;;;;;5067003;28;20215;-40
2023/01/28 08:59:23;;;;;;;17.58;11.68;;;0.10;99.90;;;;;;5067438;28;20044;-39
2023/01/28 09:01:50;;;;;;;17.42;11.85;;;0.20;99.90;;;;;;5065952;28;20427;-38
2023/01/28 09:04:15;;;;;;;17.58;11.88;;;0.40;99.90;;;;;;5067000;28;20068;-37
2023/01/28 09:06:41;;;;;;;19.00;11.60;;;0.40;99.90;;;;;;5067027;28;20111;-38
2023/01/28 09:09:07;;;;;;;16.75;10.68;;;0.50;99.90;;;;;;5067576;28;20414;-37
2023/01/28 09:11:32;;;;;;;15.93;10.73;;;0.60;99.90;;;;;;5067330;28;20055;-36
2023/01/28 09:13:58;;;;;;;16.10;10.32;;;0.80;99.90;;;;;;5067056;28;20049;-37
2023/01/28 09:16:25;;;;;;;15.18;10.15;;;0.90;99.90;;;;;;5067041;28;20041;-38
2023/01/28 09:18:51;;;;;;;16.98;10.98;;;1.30;99.90;;;;;;5068235;28;20132;-40
2023/01/28 09:21:17;;;;;;;17.23;11.27;;;1.00;99.90;;;;;;5067353;28;20064;-40
2023/01/28 09:23:42;;;;;;;18.08;11.13;;;1.00;99.90;;;;;;5067299;28;20167;-40
2023/01/28 09:26:09;;;;;;;15.70;10.98;;;1.10;99.90;;;;;;5067267;28;20045;-42
2023/01/28 09:28:37;;;;;;;15.02;10.98;;;1.30;99.90;;;;;;5067269;28;20123;-40
2023/01/28 09:31:08;;;;;;;16.13;10.32;;;2.20;99.90;;;;;;5067432;28;20397;-41
2023/01/28 09:33:35;;;;;;;15.45;10.93;;;1.40;99.90;;;;;;5067221;28;20047;-41
2023/01/28 09:36:05;;;;;;;15.05;9.32;;;1.30;99.90;;;;;;5066759;28;20846;-40
2023/01/28 09:38:33;;;;;;;14.98;9.93;;;1.20;99.90;;;;;;5067576;28;20056;-40
2023/01/28 09:40:59;;;;;;;16.25;9.88;;;1.10;99.90;;;;;;5067327;28;20052;-41
2023/01/28 09:44:01;;;;;;;14.13;9.43;;;1.00;99.90;;;;;;5044467;28;20052;-40
2023/01/28 09:46:32;;;;;;;14.30;9.95;;;1.00;99.90;;;;;;5066958;28;20049;-40
2023/01/28 09:49:01;;;;;;;12.98;9.27;;;1.00;99.90;;;;;;5066238;28;20055;-41
2023/01/28 09:51:35;;;;;;;14.02;8.38;;;1.00;99.90;;;;;;5066603;28;20718;-42
2023/01/28 09:54:13;;;;;;;11.98;8.85;;;1.10;99.90;;;;;;5066124;28;20056;-41
2023/01/28 09:56:45;;;;;;;13.20;9.02;;;1.10;99.90;;;;;;5066069;28;20044;-39
2023/01/28 09:59:19;;;;;;;12.00;8.82;;;1.20;99.90;;;;;;5066544;28;20067;-40
2023/01/28 10:02:09;;;;;;;11.60;8.95;;;1.40;99.90;;;;;;5066888;28;20703;-39
2023/01/28 10:05:04;;;;;;;12.60;7.88;;;1.90;99.90;;;;;;5052321;28;20048;-39
2023/01/28 10:08:03;;;;;;;10.57;7.95;;;3.80;99.90;;;;;;5066625;28;20082;-40
2023/01/28 10:10:34;;;;;;;10.93;7.45;;;2.10;99.90;;;;;;5066442;28;20037;-42
2023/01/28 10:13:18;;;;;;;11.45;7.50;;;2.20;99.90;;;;;;5066023;28;20128;-40
2023/01/28 10:16:00;;;;;;;9.45;6.78;;;2.30;99.90;;;;;;5066580;28;20768;-38
2023/01/28 10:18:45;;;;;;;9.75;7.53;;;2.40;99.90;;;;;;5067054;28;20789;-38
2023/01/28 10:21:25;;;;;;;8.38;6.57;;;2.40;99.90;;;;;;5066968;28;20497;-37
2023/01/28 10:24:18;;;;;;;9.35;6.65;;;2.70;99.90;;;;;;5066456;28;20159;-39
2023/01/28 10:26:44;;;;;;;;;;;2.90;99.90;;;;;;5065969;28;20040;-40
2023/01/28 10:29:20;;;;;;;9.55;6.40;;;3.20;99.90;;;;;;5066334;28;19924;-41
2023/01/28 10:31:54;;;;;;;8.82;6.30;;;3.50;99.90;;;;;;5066478;28;20043;-40
2023/01/28 10:34:21;;;;;;;7.45;5.60;;;3.80;99.90;;;;;;5066055;28;20056;-41
2023/01/28 10:36:48;;;;;;;7.72;5.70;;;4.00;99.90;;;;;;5066211;28;20163;-44
2023/01/28 10:39:20;;;;;;;7.20;5.25;;;6.50;99.90;;;;;;5066741;28;20058;-44
2023/01/28 10:41:46;;;;;;;8.23;6.65;;;4.20;99.90;;;;;;5066777;28;20486;-44
2023/01/28 10:44:17;;;;;;;6.82;5.28;;;4.20;99.90;;;;;;5066975;28;20076;-44
2023/01/28 10:46:45;;;;;;;6.15;4.70;;;4.20;99.90;;;;;;5067064;28;20185;-44
2023/01/28 10:49:14;;;;;;;8.13;5.47;;;4.10;99.90;;;;;;5067127;28;20075;-44
2023/01/28 10:51:41;;;;;;;7.15;5.30;;;4.00;99.90;;;;;;5067174;28;20047;-43
2023/01/28 10:54:25;;;;;;;6.88;5.35;;;3.80;99.90;;;;;;5067116;28;20097;-44
2023/01/28 10:57:00;;;;;;;6.80;4.60;;;3.70;99.90;;;;;;5067202;28;20037;-45
2023/01/28 10:59:28;;;;;;;6.05;4.70;;;3.50;99.90;;;;;;5067269;28;20380;-45
2023/01/28 11:01:56;;;;;;;6.35;4.38;;;3.40;99.90;;;;;;5066819;28;20516;-44
2023/01/28 11:04:28;;;;;;;9.13;4.45;;;4.30;99.90;;;;;;5066813;28;20514;-44
2023/01/28 11:07:16;;;;;;;6.15;4.32;;;3.10;99.90;;;;;;5066786;28;20072;-45
2023/01/28 11:09:46;;;;;;;6.32;4.40;;;3.00;99.90;;;;;;5067300;28;20362;-45
2023/01/28 11:12:18;;;;;;;7.47;4.38;;;3.00;99.90;;;;;;5066449;28;20044;-44
2023/01/28 11:15:16;;;;;;;6.38;3.58;;;3.20;99.90;;;;;;5066526;28;20534;-43
2023/01/28 11:17:50;;;;;;;5.38;3.90;;;3.50;99.90;;;;;;5051389;28;20221;-44
2023/01/28 11:20:21;;;;;;;5.07;3.42;;;3.70;99.90;;;;;;5066188;28;20524;-43
2023/01/28 11:22:48;;;;;;;6.88;3.10;;;4.00;99.90;;;;;;5066605;28;20047;-44
2023/01/28 11:25:16;;;;;;;7.35;5.15;;;4.10;99.90;;;;;;5066374;28;20044;-44
2023/01/28 11:27:50;;;;;;;7.07;4.25;;;4.20;99.90;;;;;;5066542;28;20037;-43
2023/01/28 11:30:39;;;;;;;5.60;3.15;;;4.20;99.90;;;;;;5066639;28;20115;-45
2023/01/28 11:33:18;;;;;;;21.90;5.20;;;4.30;99.90;;;;;;5066509;28;20036;-44
2023/01/28 11:36:03;;;;;;;5.93;3.63;;;4.40;99.90;;;;;;5066072;28;20048;-45
2023/01/28 11:38:29;;;;;;;6.88;3.60;;;4.50;99.90;;;;;;5066823;28;20051;-45
2023/01/28 11:40:57;;;;;;;6.13;3.22;;;5.60;99.90;;;;;;5066640;28;20044;-44
2023/01/28 11:43:25;;;;;;;5.55;3.83;;;4.70;99.90;;;;;;5066861;28;20079;-44
2023/01/28 11:45:59;;;;;;;7.47;3.63;;;5.30;99.90;;;;;;5067027;28;20124;-46
2023/01/28 11:48:48;;;;;;;5.07;3.83;;;4.70;99.90;;;;;;5065575;28;20087;-44
2023/01/28 11:51:31;;;;;;;5.25;3.90;;;4.70;99.90;;;;;;5066616;28;20052;-44
2023/01/28 11:54:17;;;;;;;5.78;3.92;;;4.80;99.90;;;;;;5067076;28;20462;-46
2023/01/28 11:56:58;;;;;;;5.90;3.65;;;4.80;99.90;;;;;;5066168;28;20043;-45
2023/01/28 11:59:50;;;;;;;9.18;3.80;;;4.80;99.90;;;;;;5066153;28;20051;-45
2023/01/28 12:02:50;;;;;;;7.03;4.07;;;5.70;99.90;;;;;;5066108;28;20055;-46
2023/01/28 12:05:29;;;;;;;6.15;4.45;;;4.90;99.90;;;;;;5066216;28;20402;-43
2023/01/28 12:08:18;;;;;;;6.10;4.25;;;4.90;99.90;;;;;;5066432;28;20041;-44
2023/01/28 12:10:57;;;;;;;7.32;4.97;;;5.00;99.90;;;;;;5066229;28;20557;-45
2023/01/28 12:13:35;;;;;;;7.03;4.65;;;5.00;99.90;;;;;;5066162;28;20094;-45
2023/01/28 12:16:15;;;;;;;8.60;5.10;;;5.00;99.90;;;;;;5066460;28;20048;-45
2023/01/28 12:18:53;;;;;;;7.25;4.57;;;5.00;99.90;;;;;;5066377;28;20151;-45
2023/01/28 12:21:37;;;;;;;7.07;4.88;;;5.00;99.90;;;;;;5065994;28;20139;-44
2023/01/28 12:24:06;;;;;;;6.13;4.55;;;5.00;99.90;;;;;;5048047;28;20064;-46
2023/01/28 12:26:54;;;;;;;6.80;4.75;;;5.10;99.90;;;;;;5065935;28;20140;-43
2023/01/28 12:29:40;;;;;;;6.65;5.40;;;5.10;99.90;;;;;;5065903;28;20051;-42
2023/01/28 12:32:17;;;;;;;8.23;6.20;;;5.80;99.90;;;;;;5066001;28;20075;-42
2023/01/28 12:35:23;;;;;;;9.50;7.32;;;5.00;99.90;;;;;;5065831;28;20036;-41
2023/01/28 12:38:10;;;;;;;8.98;6.50;;;4.90;99.90;;;;;;5065615;28;20154;-42
2023/01/28 12:40:42;;;;;;;9.10;6.25;;;4.60;99.90;;;;;;5065605;28;20045;-43
2023/01/28 12:43:14;;;;;;;8.77;5.85;;;4.40;99.90;;;;;;5065463;28;20040;-42
2023/01/28 12:45:45;;;;;;;8.30;5.75;;;4.10;99.90;;;;;;5064947;28;20559;-43
2023/01/28 12:48:20;;;;;;;8.25;5.25;;;4.00;99.90;;;;;;5069059;28;20482;-45
2023/01/28 12:50:46;;;;;;;7.88;6.30;;;3.80;99.90;;;;;;5069016;28;20879;-43
2023/01/28 12:53:30;;;;;;;8.05;5.70;;;3.80;99.90;;;;;;5069224;28;20044;-44
2023/01/28 12:56:14;;;;;;;9.30;6.32;;;3.80;99.90;;;;;;5069551;28;20060;-43
2023/01/28 12:58:57;;;;;;;7.45;5.65;;;3.80;99.90;;;;;;5069700;28;20044;-43
2023/01/28 13:01:49;;;;;;;8.20;5.80;;;4.60;99.90;;;;;;5068968;28;20506;-43
2023/01/28 13:04:26;;;;;;;8.52;5.15;;;3.80;99.90;;;;;;5050086;28;20160;-43
2023/01/28 13:07:01;;;;;;;8.82;5.43;;;4.70;99.90;;;;;;5068898;28;20074;-43
2023/01/28 13:09:28;;;;;;;8.90;6.78;;;3.80;99.90;;;;;;5069170;28;20476;-42
2023/01/28 13:11:57;;;;;;;9.82;6.05;;;3.80;99.90;;;;;;5068765;28;20119;-43
2023/01/28 13:14:29;;;;;;;9.10;6.50;;;3.80;99.90;;;;;;5068924;28;20109;-44
2023/01/28 13:16:55;;;;;;;9.63;5.72;;;3.80;99.90;;;;;;5069321;28;20048;-43
2023/01/28 13:19:24;;;;;;;8.05;5.63;;;3.80;99.90;;;;;;5069339;28;20056;-43
2023/01/28 13:21:50;;;;;;;8.90;5.88;;;5.10;99.90;;;;;;5050997;28;20044;-44
2023/01/28 13:24:15;;;;;;;9.57;6.47;;;3.90;99.90;;;;;;5068012;28;20483;-42
2023/01/28 13:26:49;;;;;;;9.70;6.60;;;4.00;99.90;;;;;;5068637;28;20131;-42
2023/01/28 13:29:23;;;;;;;10.40;6.80;;;4.20;99.90;;;;;;5068742;28;20106;-47
2023/01/28 13:31:52;;;;;;;9.95;6.50;;;6.70;99.90;;;;;;5068190;28;20048;-45
2023/01/28 13:34:42;;;;;;;13.07;7.20;;;4.50;99.90;;;;;;5067535;28;20046;-46
2023/01/28 13:37:30;;;;;;;10.07;6.55;;;4.50;99.90;;;;;;5067718;28;20060;-43